sensor_id;sensor_type;location;lat;lon;timestamp;pressure;altitude;pressure_sealevel;temperature;humidity
40205;BME280;26963;42.666;23.366;2023-05-19T00:01:07;95050.00;;;13.37;68.01
40205;BME280;26963;42.666;23.366;2023-05-19T00:03:34;95137.91;;;13.91;68.09
40205;BME280;26963;42.666;23.366;2023-05-19T00:06:01;95140.47;;;13.96;68.10
40205;BME280;26963;42.666;23.366;2023-05-19T00:08:30;95146.47;;;13.93;67.68
40205;BME280;26963;42.666;23.366;2023-05-19T00:10:57;95140.47;;;13.96;67.45
40205;BME280;26963;42.666;23.366;2023-05-19T00:13:26;95142.56;;;13.99;67.88
40205;BME280;26963;42.666;23.366;2023-05-19T00:15:52;95086.50;;;13.61;67.87
40205;BME280;26963;42.666;23.366;2023-05-19T00:18:17;95145.84;;;13.96;68.52
40205;BME280;26963;42.666;23.366;2023-05-19T00:20:43;95128.56;;;13.88;68.91
40205;BME280;26963;42.666;23.366;2023-05-19T00:23:09;95123.00;;;13.84;68.51
40205;BME280;26963;42.666;23.366;2023-05-19T00:25:35;95084.13;;;13.59;68.60
40205;BME280;26963;42.666;23.366;2023-05-19T00:28:01;95080.19;;;13.57;67.92
40205;BME280;26963;42.666;23.366;2023-05-19T00:30:30;95139.69;;;13.95;68.14
40205;BME280;26963;42.666;23.366;2023-05-19T00:32:55;95116.84;;;13.84;67.79
40205;BME280;26963;42.666;23.366;2023-05-19T00:35:22;95135.09;;;13.96;68.00
40205;BME280;26963;42.666;23.366;2023-05-19T00:37:48;95140.47;;;13.96;67.51
40205;BME280;26963;42.666;23.366;2023-05-19T00:40:14;95125.75;;;13.93;66.49
40205;BME280;26963;42.666;23.366;2023-05-19T00:42:40;95131.31;;;13.97;66.97
40205;BME280;26963;42.666;23.366;2023-05-19T00:45:06;95118.97;;;13.96;68.08
40205;BME280;26963;42.666;23.366;2023-05-19T00:47:32;95115.44;;;13.86;67.88
40205;BME280;26963;42.666;23.366;2023-05-19T00:49:58;95132.53;;;13.91;67.13
40205;BME280;26963;42.666;23.366;2023-05-19T00:52:24;95109.41;;;13.81;67.03
40205;BME280;26963;42.666;23.366;2023-05-19T00:54:51;95115.06;;;13.79;67.28
40205;BME280;26963;42.666;23.366;2023-05-19T00:57:17;95085.56;;;13.57;67.02
40205;BME280;26963;42.666;23.366;2023-05-19T00:59:43;95122.53;;;13.82;67.00
40205;BME280;26963;42.666;23.366;2023-05-19T01:02:09;95111.91;;;13.77;67.76
40205;BME280;26963;42.666;23.366;2023-05-19T01:04:36;95087.94;;;13.58;66.91
40205;BME280;26963;42.666;23.366;2023-05-19T01:07:02;95126.31;;;13.81;67.33
40205;BME280;26963;42.666;23.366;2023-05-19T01:09:28;95131.22;;;13.79;67.29
40205;BME280;26963;42.666;23.366;2023-05-19T01:11:54;95025.78;;;13.14;66.95
40205;BME280;26963;42.666;23.366;2023-05-19T01:14:20;95133.25;;;13.74;67.41
40205;BME280;26963;42.666;23.366;2023-05-19T01:32:40;95086.91;;;13.09;69.02
40205;BME280;26963;42.666;23.366;2023-05-19T01:35:08;95123.88;;;13.26;69.20
40205;BME280;26963;42.666;23.366;2023-05-19T01:37:36;95120.09;;;13.27;69.45
40205;BME280;26963;42.666;23.366;2023-05-19T01:40:02;95119.69;;;13.19;69.63
40205;BME280;26963;42.666;23.366;2023-05-19T01:42:28;95121.19;;;13.26;69.26
40205;BME280;26963;42.666;23.366;2023-05-19T01:44:55;95059.34;;;12.80;69.14
40205;BME280;26963;42.666;23.366;2023-05-19T01:47:21;95138.78;;;13.32;69.13
40205;BME280;26963;42.666;23.366;2023-05-19T01:49:47;95128.66;;;13.29;68.87
40205;BME280;26963;42.666;23.366;2023-05-19T01:52:13;95133.22;;;13.28;68.91
40205;BME280;26963;42.666;23.366;2023-05-19T01:54:38;95065.91;;;12.74;69.39
40205;BME280;26963;42.666;23.366;2023-05-19T02:05:34;95097.59;;;13.00;69.89
40205;BME280;26963;42.666;23.366;2023-05-19T02:08:13;95123.31;;;13.15;70.21
40205;BME280;26963;42.666;23.366;2023-05-19T02:10:44;95140.59;;;13.23;70.13
40205;BME280;26963;42.666;23.366;2023-05-19T02:13:15;95133.63;;;13.21;70.09
40205;BME280;26963;42.666;23.366;2023-05-19T02:15:44;95134.34;;;13.13;70.14
40205;BME280;26963;42.666;23.366;2023-05-19T02:18:11;95111.50;;;13.02;69.80
40205;BME280;26963;42.666;23.366;2023-05-19T02:20:38;95110.72;;;13.01;70.40
40205;BME280;26963;42.666;23.366;2023-05-19T02:23:04;95134.84;;;13.15;70.36
40205;BME280;26963;42.666;23.366;2023-05-19T02:25:29;95109.81;;;13.06;70.62
40205;BME280;26963;42.666;23.366;2023-05-19T02:27:56;95140.81;;;13.12;70.99
40205;BME280;26963;42.666;23.366;2023-05-19T02:30:25;95127.25;;;12.95;70.62
40205;BME280;26963;42.666;23.366;2023-05-19T02:32:51;95155.28;;;13.02;70.34
40205;BME280;26963;42.666;23.366;2023-05-19T02:35:19;95126.34;;;12.85;70.65
40205;BME280;26963;42.666;23.366;2023-05-19T02:37:45;95142.25;;;12.96;70.65
40205;BME280;26963;42.666;23.366;2023-05-19T02:40:11;95138.28;;;12.93;71.27
40205;BME280;26963;42.666;23.366;2023-05-19T02:42:36;95123.38;;;12.87;71.11
40205;BME280;26963;42.666;23.366;2023-05-19T02:45:02;95143.38;;;12.95;70.94
40205;BME280;26963;42.666;23.366;2023-05-19T02:47:31;95099.94;;;12.65;70.98
40205;BME280;26963;42.666;23.366;2023-05-19T02:49:56;95117.66;;;12.66;70.80
40205;BME280;26963;42.666;23.366;2023-05-19T02:52:22;95151.53;;;12.89;70.51
40205;BME280;26963;42.666;23.366;2023-05-19T02:54:47;95155.66;;;12.96;70.70
40205;BME280;26963;42.666;23.366;2023-05-19T02:57:13;95133.53;;;12.76;70.65
40205;BME280;26963;42.666;23.366;2023-05-19T02:59:38;95143.66;;;12.79;70.49
40205;BME280;26963;42.666;23.366;2023-05-19T03:02:04;95139.78;;;12.85;70.65
40205;BME280;26963;42.666;23.366;2023-05-19T03:04:29;95153.72;;;12.87;70.59
40205;BME280;26963;42.666;23.366;2023-05-19T03:06:55;95156.97;;;12.84;70.24
40205;BME280;26963;42.666;23.366;2023-05-19T03:09:21;95165.53;;;12.86;70.47
40205;BME280;26963;42.666;23.366;2023-05-19T03:11:47;95165.84;;;12.85;70.65
40205;BME280;26963;42.666;23.366;2023-05-19T03:14:13;95123.22;;;12.55;70.67
40205;BME280;26963;42.666;23.366;2023-05-19T03:16:39;95091.41;;;12.35;70.78
40205;BME280;26963;42.666;23.366;2023-05-19T03:19:08;95149.13;;;12.74;70.43
40205;BME280;26963;42.666;23.366;2023-05-19T03:21:34;95118.06;;;12.59;70.61
40205;BME280;26963;42.666;23.366;2023-05-19T03:24:00;95167.53;;;12.95;71.27
40205;BME280;26963;42.666;23.366;2023-05-19T03:26:26;95151.03;;;12.87;71.18
40205;BME280;26963;42.666;23.366;2023-05-19T03:28:53;95168.50;;;12.99;70.63
40205;BME280;26963;42.666;23.366;2023-05-19T03:31:19;95154.59;;;12.97;70.83
40205;BME280;26963;42.666;23.366;2023-05-19T03:33:44;95173.03;;;13.12;70.86
40205;BME280;26963;42.666;23.366;2023-05-19T03:36:10;95169.16;;;13.18;69.98
40205;BME280;26963;42.666;23.366;2023-05-19T03:38:36;95147.78;;;13.13;70.02
40205;BME280;26963;42.666;23.366;2023-05-19T03:41:02;95165.84;;;13.35;70.04
40205;BME280;26963;42.666;23.366;2023-05-19T03:43:28;95147.03;;;13.35;69.53
40205;BME280;26963;42.666;23.366;2023-05-19T03:45:53;95160.91;;;13.51;69.05
40205;BME280;26963;42.666;23.366;2023-05-19T03:48:19;95169.78;;;13.52;69.12
40205;BME280;26963;42.666;23.366;2023-05-19T03:50:44;95166.53;;;13.64;68.95
40205;BME280;26963;42.666;23.366;2023-05-19T03:53:10;95155.78;;;13.64;68.09
40205;BME280;26963;42.666;23.366;2023-05-19T03:55:35;95140.63;;;13.68;67.68
40205;BME280;26963;42.666;23.366;2023-05-19T03:58:02;95043.50;;;13.15;67.15
40205;BME280;26963;42.666;23.366;2023-05-19T04:00:30;95166.59;;;14.27;66.17
40205;BME280;26963;42.666;23.366;2023-05-19T04:02:56;95170.81;;;14.50;65.05
40205;BME280;26963;42.666;23.366;2023-05-19T04:05:21;95177.59;;;14.79;64.53
40205;BME280;26963;42.666;23.366;2023-05-19T04:07:47;95180.16;;;15.02;63.37
40205;BME280;26963;42.666;23.366;2023-05-19T04:10:12;95172.13;;;15.28;62.62
40205;BME280;26963;42.666;23.366;2023-05-19T04:12:38;95177.06;;;15.53;61.35
40205;BME280;26963;42.666;23.366;2023-05-19T04:15:04;95165.78;;;15.68;61.01
40205;BME280;26963;42.666;23.366;2023-05-19T04:17:35;95156.59;;;15.87;60.47
40205;BME280;26963;42.666;23.366;2023-05-19T04:20:01;95167.50;;;16.17;59.18
40205;BME280;26963;42.666;23.366;2023-05-19T04:22:26;95188.31;;;16.55;58.72
40205;BME280;26963;42.666;23.366;2023-05-19T04:24:52;95177.63;;;16.67;57.81
40205;BME280;26963;42.666;23.366;2023-05-19T04:27:17;95185.06;;;16.70;57.25
40205;BME280;26963;42.666;23.366;2023-05-19T04:29:43;95173.00;;;16.68;57.47
40205;BME280;26963;42.666;23.366;2023-05-19T04:32:10;95187.22;;;16.86;57.46
40205;BME280;26963;42.666;23.366;2023-05-19T04:34:36;95150.25;;;16.77;56.80
40205;BME280;26963;42.666;23.366;2023-05-19T04:37:12;95192.72;;;17.07;56.31
40205;BME280;26963;42.666;23.366;2023-05-19T04:39:44;95182.28;;;16.97;56.24
40205;BME280;26963;42.666;23.366;2023-05-19T04:42:11;95196.38;;;17.02;56.38
40205;BME280;26963;42.666;23.366;2023-05-19T04:44:37;95192.31;;;16.87;56.73
40205;BME280;26963;42.666;23.366;2023-05-19T04:47:07;95141.00;;;16.49;55.83
40205;BME280;26963;42.666;23.366;2023-05-19T04:49:34;95153.41;;;16.50;56.42
40205;BME280;26963;42.666;23.366;2023-05-19T04:52:06;95179.59;;;16.49;56.77
40205;BME280;26963;42.666;23.366;2023-05-19T04:54:36;95171.53;;;16.40;57.47
40205;BME280;26963;42.666;23.366;2023-05-19T04:57:02;95098.34;;;15.86;57.77
40205;BME280;26963;42.666;23.366;2023-05-19T04:59:28;95182.69;;;16.30;58.42
40205;BME280;26963;42.666;23.366;2023-05-19T05:01:54;95194.13;;;16.36;58.62
40205;BME280;26963;42.666;23.366;2023-05-19T05:04:20;95190.28;;;16.45;58.60
40205;BME280;26963;42.666;23.366;2023-05-19T05:06:46;95195.69;;;16.45;58.42
40205;BME280;26963;42.666;23.366;2023-05-19T05:09:16;95200.72;;;16.56;57.79
40205;BME280;26963;42.666;23.366;2023-05-19T05:11:43;95127.34;;;16.06;57.71
40205;BME280;26963;42.666;23.366;2023-05-19T05:14:09;95133.56;;;15.98;57.78
40205;BME280;26963;42.666;23.366;2023-05-19T05:16:35;95187.44;;;16.33;57.50
40205;BME280;26963;42.666;23.366;2023-05-19T05:19:01;95164.91;;;16.29;57.18
40205;BME280;26963;42.666;23.366;2023-05-19T05:21:30;95163.94;;;16.34;57.16
40205;BME280;26963;42.666;23.366;2023-05-19T05:23:56;95182.69;;;16.30;57.42
40205;BME280;26963;42.666;23.366;2023-05-19T05:26:22;95174.16;;;16.10;58.49
40205;BME280;26963;42.666;23.366;2023-05-19T05:28:56;95191.44;;;16.18;58.96
40205;BME280;26963;42.666;23.366;2023-05-19T05:31:22;95193.38;;;16.18;58.87
40205;BME280;26963;42.666;23.366;2023-05-19T05:33:47;95203.50;;;16.21;59.25
40205;BME280;26963;42.666;23.366;2023-05-19T05:36:13;95195.09;;;16.13;58.97
40205;BME280;26963;42.666;23.366;2023-05-19T05:38:39;95136.25;;;15.72;58.88
40205;BME280;26963;42.666;23.366;2023-05-19T05:41:05;95146.44;;;15.75;58.87
40205;BME280;26963;42.666;23.366;2023-05-19T05:43:30;95197.97;;;16.08;59.29
40205;BME280;26963;42.666;23.366;2023-05-19T05:45:56;95200.50;;;16.13;59.50
40205;BME280;26963;42.666;23.366;2023-05-19T05:48:22;95200.50;;;16.13;59.30
40205;BME280;26963;42.666;23.366;2023-05-19T05:50:48;95200.50;;;16.13;59.84
40205;BME280;26963;42.666;23.366;2023-05-19T05:53:19;95152.13;;;15.82;59.75
40205;BME280;26963;42.666;23.366;2023-05-19T05:55:48;95165.00;;;15.85;59.41
40205;BME280;26963;42.666;23.366;2023-05-19T05:58:14;95213.84;;;16.19;59.68
40205;BME280;26963;42.666;23.366;2023-05-19T06:00:42;95189.91;;;16.00;59.73
40205;BME280;26963;42.666;23.366;2023-05-19T06:03:08;95230.16;;;16.31;59.41
40205;BME280;26963;42.666;23.366;2023-05-19T06:05:34;95226.84;;;16.34;59.17
40205;BME280;26963;42.666;23.366;2023-05-19T06:08:00;95214.91;;;16.35;58.95
40205;BME280;26963;42.666;23.366;2023-05-19T06:10:27;95204.44;;;16.34;58.98
40205;BME280;26963;42.666;23.366;2023-05-19T06:12:55;95229.81;;;16.41;59.00
40205;BME280;26963;42.666;23.366;2023-05-19T06:15:21;95212.66;;;16.46;58.76
40205;BME280;26963;42.666;23.366;2023-05-19T06:17:47;95170.13;;;16.34;58.39
40205;BME280;26963;42.666;23.366;2023-05-19T06:20:13;95165.19;;;16.36;57.97
40205;BME280;26963;42.666;23.366;2023-05-19T06:22:39;95228.22;;;16.97;57.23
40205;BME280;26963;42.666;23.366;2023-05-19T06:25:05;95223.16;;;19.67;50.78
40205;BME280;26963;42.666;23.366;2023-05-19T06:27:31;95214.69;;;22.71;43.67
40205;BME280;26963;42.666;23.366;2023-05-19T06:29:57;95219.19;;;24.96;38.00
40205;BME280;26963;42.666;23.366;2023-05-19T06:32:25;95153.38;;;26.32;35.23
40205;BME280;26963;42.666;23.366;2023-05-19T06:34:51;95216.31;;;28.31;31.91
40205;BME280;26963;42.666;23.366;2023-05-19T06:37:22;95205.13;;;29.65;30.38
40205;BME280;26963;42.666;23.366;2023-05-19T06:39:52;95211.16;;;30.84;27.64
40205;BME280;26963;42.666;23.366;2023-05-19T06:42:18;95207.94;;;31.84;26.20
40205;BME280;26963;42.666;23.366;2023-05-19T06:44:50;95203.19;;;32.61;24.85
40205;BME280;26963;42.666;23.366;2023-05-19T06:47:16;95197.03;;;33.23;23.10
40205;BME280;26963;42.666;23.366;2023-05-19T06:49:43;95204.16;;;33.87;22.32
40205;BME280;26963;42.666;23.366;2023-05-19T06:52:09;95178.56;;;34.08;21.68
40205;BME280;26963;42.666;23.366;2023-05-19T06:54:35;95203.56;;;34.89;20.99
40205;BME280;26963;42.666;23.366;2023-05-19T06:57:00;95182.84;;;35.16;20.37
40205;BME280;26963;42.666;23.366;2023-05-19T06:59:26;95219.75;;;35.30;19.44
40205;BME280;26963;42.666;23.366;2023-05-19T07:01:51;95211.03;;;34.24;20.08
40205;BME280;26963;42.666;23.366;2023-05-19T07:04:17;95207.16;;;32.97;21.73
40205;BME280;26963;42.666;23.366;2023-05-19T07:06:42;95215.41;;;33.33;21.11
40205;BME280;26963;42.666;23.366;2023-05-19T07:09:08;95192.69;;;33.06;21.42
40205;BME280;26963;42.666;23.366;2023-05-19T07:11:33;95209.88;;;33.33;21.75
40205;BME280;26963;42.666;23.366;2023-05-19T07:13:59;95224.56;;;33.63;21.04
40205;BME280;26963;42.666;23.366;2023-05-19T07:16:25;95211.41;;;33.51;21.52
40205;BME280;26963;42.666;23.366;2023-05-19T07:18:50;95201.09;;;33.52;20.57
40205;BME280;26963;42.666;23.366;2023-05-19T07:21:16;95222.69;;;33.73;20.79
40205;BME280;26963;42.666;23.366;2023-05-19T07:23:41;95226.88;;;34.53;20.25
40205;BME280;26963;42.666;23.366;2023-05-19T07:26:07;95200.56;;;34.97;19.54
40205;BME280;26963;42.666;23.366;2023-05-19T07:28:33;95240.28;;;34.00;20.86
40205;BME280;26963;42.666;23.366;2023-05-19T07:30:59;95206.84;;;33.44;20.98
40205;BME280;26963;42.666;23.366;2023-05-19T07:33:25;95225.22;;;34.56;20.70
40205;BME280;26963;42.666;23.366;2023-05-19T07:35:52;95229.63;;;33.19;21.23
40205;BME280;26963;42.666;23.366;2023-05-19T07:38:17;95205.88;;;31.88;22.31
40205;BME280;26963;42.666;23.366;2023-05-19T07:40:43;95226.09;;;33.64;21.87
40205;BME280;26963;42.666;23.366;2023-05-19T07:43:08;95225.06;;;34.34;20.01
40205;BME280;26963;42.666;23.366;2023-05-19T07:45:36;95226.66;;;32.93;21.77
40205;BME280;26963;42.666;23.366;2023-05-19T07:48:02;95194.97;;;33.73;20.84
40205;BME280;26963;42.666;23.366;2023-05-19T07:50:28;95167.94;;;34.33;20.16
40205;BME280;26963;42.666;23.366;2023-05-19T07:52:53;95226.66;;;35.38;19.92
40205;BME280;26963;42.666;23.366;2023-05-19T07:55:19;95226.94;;;36.01;19.04
40205;BME280;26963;42.666;23.366;2023-05-19T07:57:48;95221.75;;;36.12;18.75
40205;BME280;26963;42.666;23.366;2023-05-19T08:00:14;95170.47;;;36.32;18.76
40205;BME280;26963;42.666;23.366;2023-05-19T08:02:40;95218.19;;;36.56;18.39
40205;BME280;26963;42.666;23.366;2023-05-19T08:05:06;95180.78;;;34.94;19.73
40205;BME280;26963;42.666;23.366;2023-05-19T08:07:33;95221.66;;;34.42;19.54
40205;BME280;26963;42.666;23.366;2023-05-19T08:09:59;95192.25;;;34.97;19.03
40205;BME280;26963;42.666;23.366;2023-05-19T08:12:24;95218.25;;;33.46;20.87
40205;BME280;26963;42.666;23.366;2023-05-19T08:14:50;95203.41;;;33.53;21.04
40205;BME280;26963;42.666;23.366;2023-05-19T08:17:16;95212.88;;;33.23;20.67
40205;BME280;26963;42.666;23.366;2023-05-19T08:19:42;95207.97;;;33.30;20.76
40205;BME280;26963;42.666;23.366;2023-05-19T08:22:07;95229.69;;;33.48;20.71
40205;BME280;26963;42.666;23.366;2023-05-19T08:24:33;95210.56;;;33.67;20.75
40205;BME280;26963;42.666;23.366;2023-05-19T08:26:58;95227.47;;;33.73;20.24
40205;BME280;26963;42.666;23.366;2023-05-19T08:29:24;95166.69;;;33.49;19.96
40205;BME280;26963;42.666;23.366;2023-05-19T08:31:50;95229.13;;;34.58;20.22
40205;BME280;26963;42.666;23.366;2023-05-19T08:34:20;95204.88;;;34.98;19.55
40205;BME280;26963;42.666;23.366;2023-05-19T08:36:46;95205.09;;;35.42;18.98
40205;BME280;26963;42.666;23.366;2023-05-19T08:39:12;95203.84;;;35.78;18.80
40205;BME280;26963;42.666;23.366;2023-05-19T08:41:39;95218.38;;;36.17;18.50
40205;BME280;26963;42.666;23.366;2023-05-19T08:44:05;95179.91;;;35.46;18.79
40205;BME280;26963;42.666;23.366;2023-05-19T08:46:31;95178.72;;;35.69;18.96
40205;BME280;26963;42.666;23.366;2023-05-19T08:49:04;95194.63;;;36.03;18.50
40205;BME280;26963;42.666;23.366;2023-05-19T08:51:39;95219.41;;;36.33;18.28
40205;BME280;26963;42.666;23.366;2023-05-19T08:54:16;95206.13;;;36.37;17.83
40205;BME280;26963;42.666;23.366;2023-05-19T08:56:43;95174.88;;;35.88;18.42
40205;BME280;26963;42.666;23.366;2023-05-19T08:59:11;95229.00;;;36.10;18.70
40205;BME280;26963;42.666;23.366;2023-05-19T09:01:38;95213.97;;;36.07;18.59
40205;BME280;26963;42.666;23.366;2023-05-19T09:04:04;95207.94;;;36.08;18.39
40205;BME280;26963;42.666;23.366;2023-05-19T09:06:30;95215.13;;;35.62;18.72
40205;BME280;26963;42.666;23.366;2023-05-19T09:08:56;95215.88;;;35.40;20.02
40205;BME280;26963;42.666;23.366;2023-05-19T09:11:22;95215.47;;;34.90;19.37
40205;BME280;26963;42.666;23.366;2023-05-19T09:13:48;95159.84;;;33.83;20.37
40205;BME280;26963;42.666;23.366;2023-05-19T09:16:14;95156.63;;;32.56;21.71
40205;BME280;26963;42.666;23.366;2023-05-19T09:18:52;95185.25;;;31.73;24.06
40205;BME280;26963;42.666;23.366;2023-05-19T09:21:19;95194.59;;;30.84;24.98
40205;BME280;26963;42.666;23.366;2023-05-19T09:23:45;95197.75;;;29.09;26.73
40205;BME280;26963;42.666;23.366;2023-05-19T09:26:11;95198.22;;;28.37;28.08
40205;BME280;26963;42.666;23.366;2023-05-19T09:28:39;95133.78;;;27.17;29.44
40205;BME280;26963;42.666;23.366;2023-05-19T09:31:07;95181.66;;;27.27;29.88
40205;BME280;26963;42.666;23.366;2023-05-19T09:36:01;95191.88;;;26.97;30.45
40205;BME280;26963;42.666;23.366;2023-05-19T09:38:30;95194.59;;;26.72;30.69
40205;BME280;26963;42.666;23.366;2023-05-19T09:41:00;95183.53;;;26.36;31.82
40205;BME280;26963;42.666;23.366;2023-05-19T09:43:29;95162.75;;;26.20;32.10
40205;BME280;26963;42.666;23.366;2023-05-19T09:46:09;95179.63;;;26.33;32.54
40205;BME280;26963;42.666;23.366;2023-05-19T09:48:37;95193.34;;;26.30;31.88
40205;BME280;26963;42.666;23.366;2023-05-19T09:51:04;95193.16;;;25.86;32.29
40205;BME280;26963;42.666;23.366;2023-05-19T09:53:33;95186.81;;;25.68;33.14
40205;BME280;26963;42.666;23.366;2023-05-19T09:56:00;95141.78;;;24.99;32.38
40205;BME280;26963;42.666;23.366;2023-05-19T09:58:30;95177.78;;;25.08;32.91
40205;BME280;26963;42.666;23.366;2023-05-19T10:01:00;95177.59;;;24.83;33.32
40205;BME280;26963;42.666;23.366;2023-05-19T10:03:26;95202.78;;;25.03;32.94
40205;BME280;26963;42.666;23.366;2023-05-19T10:05:55;95188.75;;;25.04;33.35
40205;BME280;26963;42.666;23.366;2023-05-19T10:08:22;95168.91;;;24.70;32.68
40205;BME280;26963;42.666;23.366;2023-05-19T10:10:50;95189.75;;;24.44;34.32
40205;BME280;26963;42.666;23.366;2023-05-19T10:13:16;95184.06;;;24.22;34.13
40205;BME280;26963;42.666;23.366;2023-05-19T10:15:42;95159.56;;;23.96;34.31
40205;BME280;26963;42.666;23.366;2023-05-19T10:18:08;95169.81;;;24.06;34.34
40205;BME280;26963;42.666;23.366;2023-05-19T10:20:35;95126.50;;;23.74;35.31
40205;BME280;26963;42.666;23.366;2023-05-19T10:23:01;95138.75;;;23.87;34.70
40205;BME280;26963;42.666;23.366;2023-05-19T10:25:32;95032.44;;;23.07;34.29
40205;BME280;26963;42.666;23.366;2023-05-19T10:28:04;95175.47;;;23.90;35.43
40205;BME280;26963;42.666;23.366;2023-05-19T10:30:39;95160.94;;;23.82;35.57
40205;BME280;26963;42.666;23.366;2023-05-19T10:33:07;95162.59;;;23.90;35.99
40205;BME280;26963;42.666;23.366;2023-05-19T10:38:41;95166.91;;;23.91;34.82
40205;BME280;26963;42.666;23.366;2023-05-19T10:41:26;95165.44;;;23.98;33.73
40205;BME280;26963;42.666;23.366;2023-05-19T10:46:51;95150.81;;;23.86;34.26
40205;BME280;26963;42.666;23.366;2023-05-19T10:49:20;95160.06;;;24.05;34.18
40205;BME280;26963;42.666;23.366;2023-05-19T10:51:51;95156.56;;;24.08;34.01
40205;BME280;26963;42.666;23.366;2023-05-19T10:54:16;95124.22;;;23.80;33.75
40205;BME280;26963;42.666;23.366;2023-05-19T10:56:43;95152.41;;;23.87;34.17
40205;BME280;26963;42.666;23.366;2023-05-19T10:59:31;95116.16;;;23.56;34.50
40205;BME280;26963;42.666;23.366;2023-05-19T11:02:04;95147.22;;;23.78;33.76
40205;BME280;26963;42.666;23.366;2023-05-19T11:04:56;95144.22;;;23.87;33.36
40205;BME280;26963;42.666;23.366;2023-05-19T11:07:31;95143.81;;;23.85;33.14
40205;BME280;26963;42.666;23.366;2023-05-19T11:10:04;95135.19;;;23.83;33.64
40205;BME280;26963;42.666;23.366;2023-05-19T11:12:41;95099.22;;;23.77;34.31
40205;BME280;26963;42.666;23.366;2023-05-19T11:15:12;95103.81;;;23.70;34.23
40205;BME280;26963;42.666;23.366;2023-05-19T11:17:39;95122.53;;;23.68;34.71
40205;BME280;26963;42.666;23.366;2023-05-19T11:20:27;95139.75;;;23.72;35.19
40205;BME280;26963;42.666;23.366;2023-05-19T11:23:07;95134.50;;;23.59;34.44
40205;BME280;26963;42.666;23.366;2023-05-19T11:25:43;95086.19;;;23.29;35.04
40205;BME280;26963;42.666;23.366;2023-05-19T11:28:10;95112.81;;;23.40;34.46
40205;BME280;26963;42.666;23.366;2023-05-19T11:30:38;95038.66;;;22.77;33.73
40205;BME280;26963;42.666;23.366;2023-05-19T11:33:04;95125.88;;;23.23;34.67
40205;BME280;26963;42.666;23.366;2023-05-19T11:35:32;95144.66;;;23.02;35.47
40205;BME280;26963;42.666;23.366;2023-05-19T11:38:00;95141.22;;;22.58;36.51
40205;BME280;26963;42.666;23.366;2023-05-19T11:40:30;95164.69;;;22.20;39.86
40205;BME280;26963;42.666;23.366;2023-05-19T11:42:57;95165.53;;;21.81;44.45
40205;BME280;26963;42.666;23.366;2023-05-19T11:45:30;95158.06;;;21.23;51.60
40205;BME280;26963;42.666;23.366;2023-05-19T11:48:00;95187.53;;;21.01;55.20
40205;BME280;26963;42.666;23.366;2023-05-19T11:50:30;95173.38;;;20.48;57.90
40205;BME280;26963;42.666;23.366;2023-05-19T11:52:59;95183.75;;;20.14;53.83
40205;BME280;26963;42.666;23.366;2023-05-19T11:55:24;95168.09;;;19.66;51.29
40205;BME280;26963;42.666;23.366;2023-05-19T11:58:03;95161.84;;;19.37;52.72
40205;BME280;26963;42.666;23.366;2023-05-19T12:00:29;95094.03;;;18.47;53.20
40205;BME280;26963;42.666;23.366;2023-05-19T12:02:56;95222.22;;;19.10;55.29
40205;BME280;26963;42.666;23.366;2023-05-19T12:05:24;95226.13;;;18.17;55.97
40205;BME280;26963;42.666;23.366;2023-05-19T12:07:51;95230.41;;;17.33;59.98
40205;BME280;26963;42.666;23.366;2023-05-19T12:10:21;95161.56;;;16.32;60.85
40205;BME280;26963;42.666;23.366;2023-05-19T12:12:47;95249.91;;;16.23;60.01
40205;BME280;26963;42.666;23.366;2023-05-19T12:15:14;95188.31;;;15.63;60.19
40205;BME280;26963;42.666;23.366;2023-05-19T12:17:40;95238.59;;;15.77;59.20
40205;BME280;26963;42.666;23.366;2023-05-19T12:20:06;95233.06;;;15.82;58.47
40205;BME280;26963;42.666;23.366;2023-05-19T12:22:33;95176.09;;;15.48;59.76
40205;BME280;26963;42.666;23.366;2023-05-19T12:24:59;95223.25;;;16.04;60.87
40205;BME280;26963;42.666;23.366;2023-05-19T12:27:26;95213.78;;;16.36;62.35
40205;BME280;26963;42.666;23.366;2023-05-19T12:29:53;95217.50;;;16.70;60.83
40205;BME280;26963;42.666;23.366;2023-05-19T12:32:26;95230.41;;;17.03;58.46
40205;BME280;26963;42.666;23.366;2023-05-19T12:35:01;95208.03;;;17.24;56.32
40205;BME280;26963;42.666;23.366;2023-05-19T12:37:30;95224.69;;;17.56;54.60
40205;BME280;26963;42.666;23.366;2023-05-19T12:40:01;95155.13;;;17.35;55.63
40205;BME280;26963;42.666;23.366;2023-05-19T12:42:30;95189.88;;;17.88;55.00
40205;BME280;26963;42.666;23.366;2023-05-19T12:45:03;95194.97;;;18.11;53.29
40205;BME280;26963;42.666;23.366;2023-05-19T12:47:30;95203.81;;;18.32;53.99
40205;BME280;26963;42.666;23.366;2023-05-19T12:50:04;95196.16;;;18.47;53.75
40205;BME280;26963;42.666;23.366;2023-05-19T12:52:32;95184.22;;;18.48;52.80
40205;BME280;26963;42.666;23.366;2023-05-19T12:55:03;95182.22;;;18.57;52.43
40205;BME280;26963;42.666;23.366;2023-05-19T12:57:33;95167.06;;;18.56;53.38
40205;BME280;26963;42.666;23.366;2023-05-19T13:00:13;95150.56;;;18.49;52.89
40205;BME280;26963;42.666;23.366;2023-05-19T13:03:04;95119.97;;;18.36;51.78
40205;BME280;26963;42.666;23.366;2023-05-19T13:05:31;95165.69;;;18.74;49.29
40205;BME280;26963;42.666;23.366;2023-05-19T13:08:05;95156.22;;;18.68;49.36
40205;BME280;26963;42.666;23.366;2023-05-19T13:10:32;95094.78;;;18.35;48.84
40205;BME280;26963;42.666;23.366;2023-05-19T13:12:59;95152.84;;;18.84;47.97
40205;BME280;26963;42.666;23.366;2023-05-19T13:15:26;95098.28;;;18.61;46.85
40205;BME280;26963;42.666;23.366;2023-05-19T13:17:55;95121.78;;;18.69;46.80
40205;BME280;26963;42.666;23.366;2023-05-19T13:20:22;95140.44;;;18.95;46.77
40205;BME280;26963;42.666;23.366;2023-05-19T13:22:48;94985.56;;;17.94;47.63
40205;BME280;26963;42.666;23.366;2023-05-19T13:25:13;95129.59;;;18.95;46.68